Flight Track Log - Related Links

Times and Time Zones

All times are in EDT time to prevent confusion due to time zone crossing. See the SLI2614 flight status page for this flight to view local times or setup timezone preferences in your user account.

Time Position Orientation Groundspeed Altitude Reporting Facility
EDT Latitude Longitude Course Direction KTS MPH feet Rate Location/Type
Tue 12:01:00 PM 25.4943 -100.0819 175° South  Level Estimated
Tue 12:02:00 PM 25.3995 -100.0736 175° South  Level Estimated
Tue 12:03:00 PM 25.3048 -100.0653 175° South  Level Estimated
Tue 12:04:00 PM 25.2101 -100.0570 175° South  Level Estimated
Tue 12:05:00 PM 25.1153 -100.0487 175° South  Level Estimated
Tue 12:06:00 PM 25.0206 -100.0405 175° South  Level Estimated
Tue 12:07:00 PM 24.9258 -100.0322 175° South  Level Estimated
Tue 12:08:00 PM 24.8311 -100.0240 175° South  Level Estimated
Tue 12:09:00 PM 24.7363 -100.0158 175° South  Level Estimated
Tue 12:10:00 PM 24.6416 -100.0076 175° South  Level Estimated
Tue 12:11:00 PM 24.5469 -99.9994 176° South  Level Estimated
Tue 12:12:00 PM 24.4521 -99.9912 176° South  Level Estimated
Tue 12:13:00 PM 24.3573 -99.9830 176° South  Level Estimated
Tue 12:14:00 PM 24.2626 -99.9749 176° South  Level Estimated
Tue 12:15:00 PM 24.1679 -99.9667 176° South  Level Estimated
Tue 12:16:00 PM 24.0731 -99.9586 176° South  Level Estimated
Tue 12:17:00 PM 23.9783 -99.9505 176° South  Level Estimated
Tue 12:18:00 PM 23.8836 -99.9424 176° South  Level Estimated
Tue 12:19:00 PM 23.7889 -99.9342 176° South  Level Estimated
Tue 12:20:00 PM 23.6941 -99.9262 176° South  Level Estimated
Tue 12:21:00 PM 23.5993 -99.9181 176° South  Level Estimated
Tue 12:22:00 PM 23.5046 -99.9100 176° South  Level Estimated
Tue 12:23:00 PM 23.4098 -99.9020 176° South  Level Estimated
Tue 12:24:00 PM 23.3151 -99.8940 176° South  Level Estimated
Tue 12:25:00 PM 23.2204 -99.8859 176° South  Level Estimated
Tue 12:26:00 PM 23.1256 -99.8779 176° South  Level Estimated
Tue 12:27:00 PM 23.0308 -99.8699 176° South  Level Estimated
Tue 12:28:00 PM 22.9361 -99.8619 176° South  Level Estimated
Tue 12:29:00 PM 22.8414 -99.8539 176° South  Level Estimated
Tue 12:30:00 PM 22.7466 -99.8460 176° South  Level Estimated
Tue 12:31:00 PM 22.6518 -99.8380 176° South  Level Estimated
Tue 12:32:00 PM 22.5571 -99.8300 176° South  Level Estimated
Tue 12:33:00 PM 22.4624 -99.8221 176° South  Level Estimated
Tue 12:34:00 PM 22.3676 -99.8142 176° South  Level Estimated
Tue 12:35:00 PM 22.2728 -99.8063 176° South  Level Estimated
Tue 12:36:00 PM 22.1781 -99.7983 176° South  Level Estimated
Tue 12:37:00 PM 22.0833 -99.7905 176° South  Level Estimated
Tue 12:38:00 PM 21.9886 -99.7826 176° South  Level Estimated
Tue 12:39:00 PM 21.8938 -99.7747 176° South  Level Estimated
Tue 12:40:00 PM 21.7990 -99.7669 176° South  Level Estimated
Tue 12:41:00 PM 21.7043 -99.7590 176° South  Level Estimated
Tue 12:42:00 PM 21.6095 -99.7512 176° South  Level Estimated
Tue 12:43:00 PM 21.5147 -99.7433 176° South  Level Estimated
Tue 12:44:00 PM 21.4200 -99.7355 176° South  Level Estimated
Tue 12:45:00 PM 21.3252 -99.7277 176° South  Level Estimated
Tue 12:46:00 PM 21.2305 -99.7199 176° South  Level Estimated
Tue 12:47:00 PM 21.1357 -99.7121 176° South  Level Estimated
Tue 12:48:00 PM 21.0410 -99.7043 176° South  Level Estimated
Tue 12:49:00 PM 20.9462 -99.6966 176° South  Level Estimated
Tue 12:50:00 PM 20.8514 -99.6888 176° South  Level Estimated
Tue 12:51:00 PM 20.7567 -99.6811 176° South  Level Estimated
Tue 12:52:00 PM 20.6619 -99.6733 176° South  Level Estimated
Tue 12:53:00 PM 20.5672 -99.6656 176° South  Level Estimated
Tue 12:54:00 PM 20.4724 -99.6578 176° South  Level Estimated
Tue 12:55:00 PM 20.3776 -99.6501 176° South  Level Estimated
Tue 12:56:00 PM 20.2829 -99.6424 176° South  Level Estimated
Tue 12:57:00 PM 20.1881 -99.6347 176° South  Level Estimated
Tue 12:58:00 PM 20.0933 -99.6270 176° South  Level Estimated
Tue 12:59:00 PM 19.9986 -99.6193 176° South  Level Estimated
Tue 01:00:00 PM 19.9038 -99.6117 176° South  Level Estimated
Tue 01:01:00 PM 19.8091 -99.6040 176° South  Level Estimated
Tue 01:02:00 PM 19.7143 -99.5964 176° South  Level Estimated
Tue 01:03:00 PM 19.6195 -99.5887 176° South  Level Estimated
Tue 01:04:00 PM 19.5248 -99.5811 176° South  Level Estimated
Tue 01:05:00 PM 19.4300 -99.5735 176° South  Level Estimated
Tue 01:06:00 PM 19.3371 -99.5660 176° South  Level Estimated
Tue 01:07:00 PM 19.3371 -99.5660 43° Northeast  Level Estimated
Tue 01:08:00 PM 19.3371 -99.5660 43° Northeast  Level Estimated
Tue 01:09:00 PM 19.3371 -99.5660 43° Northeast  Level Estimated
Tue 01:10:00 PM 19.3371 -99.5660 43° Northeast  Level Estimated
Tue 01:11:00 PM 19.3371 -99.5660 43° Northeast  Level Estimated
Tue 01:12:00 PM 19.3371 -99.5660 43° Northeast  Level Estimated
Tue 01:13:00 PM 19.3371 -99.5660 43° Northeast  Level Estimated
Tue 01:14:00 PM 19.3371 -99.5660 43° Northeast  Level Estimated
Tue 01:15:00 PM 19.3371 -99.5660 43° Northeast  Level Estimated
Tue 01:16:00 PM 19.3371 -99.5660 43° Northeast  Level Estimated

Login

Don't have an account? Register now (free) for customized features, flight alerts, and more!